Accueil
METAR-TAF:

METAR-TAF

Aéroports :

Aéroport de Maastricht-Aix-la-Chapelle

Maastricht Aix-la-Chapelle, Pays-Bas

latitude: 50-55N, longitude: 005-47E, altitude: 114 m

Observation

Le bulletin a été fait il y a 29 minutes, à 11:55 UTC
Vent 10 kt de ouest, variant entre sud-ouest et nord-ouest
Température 10°C
Humidité 53%
Pression 1017 hPa
Visibilité 10 km ou plus
Nuages épars à une hauteur de 4900 ft

METAR: EHBK 031155Z AUTO 27010KT 230V320 9999 SCT049 10/01 Q1017 NOSIG

Heure: 14:24 (12:24 UTC)

Prévision

Le bulletin a été fait il y a 1 heure et 9 minutes, à 11:15 UTC
Prévision valable du 03 à 12 UTC au 04 à 18 UTC
Vent 10 kt de ouest
Visibilité 10 km ou plus
Nuages fragmentés à une hauteur de 4000 ft
Evoluant progressivement
du 03 à 19 UTC au 03 à 22 UTC
Vent 5 kt de sud-est

TAF: EHBK 031115Z 0312/0418 28010KT 9999 BKN040 BECMG 0319/0322 14005KT

Observations et prévisions météorologiques de plus de 4000 aéroports (messages METAR et TAF).

Les stations disponibles sont représentées par des disques jaunes et rouges sur la carte.

Passer la souris dessus pour voir le nom de la station.

Cliquer dessus pour voir les observations et prévisions météorologiques.

Pour changer de carte: cliquez sur les boutons verts avec une croix noire pour zoomer, sur le bouton vert avec un tiret pour effectuer un zoom arrière, ou sur les flèches vertes pour les cartes adjacentes.


METAR-TAF: